Terminal Aerodrome Forecast
Issued by NWS St Louis, MO

Home | Current Version | Previous Version | Graphics & Text | Print | Product List | Glossary On
Versions: 1 2 3 4 5 6 7 8 9 10 11 12 13 14 15 16 17 18 19 20 21 22 23 24 25 26 27 28 29 30
000
FTUS43 KLSX 280716 AAA
TAFSTL
TAF AMD
KSTL 280716Z 2807/2912 18010KT P6SM FEW020 SCT100 BKN250
      TEMPO 2808/2812 BKN020
     FM281500 18012KT P6SM SCT025 BKN050
     FM290300 18008KT P6SM VCTS BKN050CB
     FM290600 20006KT P6SM FEW050 SCT120=

USA.gov is the U.S. government's official web portal to all federal, state and local government web resources and services.